Time;durP1;ratioP1;P1;durP2;ratioP2;P2;SDS_P1;SDS_P2;PMS_P1;PMS_P2;Temp;Humidity;BMP_temperature;BMP_pressure;BME280_temperature;BME280_humidity;BME280_pressure;Samples;Min_cycle;Max_cycle;Signal;HPM_P1;HPM_P2
2023/04/05 00:02:12;;;;;;;13.43;8.43;;;;;;;-2.10;100.00;102216.72;10334835;28;20062;-76
2023/04/05 00:07:13;;;;;;;12.98;7.10;;;;;;;-2.08;100.00;102207.56;10319215;28;20042;-76
2023/04/05 00:12:13;;;;;;;15.57;9.23;;;;;;;-2.27;100.00;102213.78;10304257;28;20180;-75
2023/04/05 00:17:14;;;;;;;19.40;11.70;;;;;;;-2.41;100.00;102195.06;10318393;28;20470;-76
2023/04/05 00:22:19;;;;;;;17.27;10.37;;;;;;;-2.58;100.00;102207.50;10334396;28;20128;-76
2023/04/05 00:27:19;;;;;;;17.67;7.85;;;;;;;-2.79;100.00;102192.97;10360114;28;20046;-75
2023/04/05 00:32:20;;;;;;;14.23;9.00;;;;;;;-2.93;100.00;102205.03;10367399;28;20057;-75
2023/04/05 00:37:21;;;;;;;13.53;8.47;;;;;;;-2.99;100.00;102194.00;10342474;28;20038;-75
2023/04/05 00:42:22;;;;;;;19.03;11.57;;;;;;;-3.00;100.00;102197.31;10378398;28;20046;-75
2023/04/05 00:47:22;;;;;;;15.57;10.53;;;;;;;-2.94;100.00;102198.06;10391158;28;20121;-75
2023/04/05 00:52:23;;;;;;;22.87;11.43;;;;;;;-2.92;100.00;102185.41;10359235;28;20040;-75
2023/04/05 00:57:25;;;;;;;16.20;9.63;;;;;;;-2.95;100.00;102180.84;10357061;28;20125;-76
2023/04/05 01:02:32;;;;;;;18.08;9.57;;;;;;;-2.91;100.00;102177.00;10358754;28;20046;-75
2023/04/05 01:07:45;;;;;;;19.35;11.68;;;;;;;-3.00;100.00;102180.28;10340330;28;20122;-76
2023/04/05 01:12:45;;;;;;;16.08;9.77;;;;;;;-3.10;100.00;102175.69;10363427;28;20037;-76
2023/04/05 01:17:47;;;;;;;23.20;12.27;;;;;;;-3.20;100.00;102180.41;10344483;28;20125;-75
2023/04/05 01:23:07;;;;;;;;;;;;;;;-3.15;100.00;102179.31;10381191;28;20034;-75
2023/04/05 01:28:26;;;;;;;17.77;11.35;;;;;;;-3.33;100.00;102169.34;10364917;28;19932;-75
2023/04/05 01:33:32;;;;;;;25.42;15.02;;;;;;;-3.32;100.00;102169.53;10365835;28;20038;-75
2023/04/05 01:38:33;;;;;;;28.77;15.25;;;;;;;-3.28;100.00;102169.19;10365750;28;20050;-76
2023/04/05 01:43:33;;;;;;;20.27;12.87;;;;;;;-3.21;100.00;102172.50;10354536;28;20141;-75
2023/04/05 01:48:34;;;;;;;26.17;14.90;;;;;;;-3.29;100.00;102169.91;10351742;28;20069;-75
2023/04/05 01:53:34;;;;;;;21.47;13.50;;;;;;;-3.47;100.00;102173.69;10367006;28;20125;-75
2023/04/05 01:58:35;;;;;;;20.10;13.17;;;;;;;-3.56;100.00;102168.31;10347371;28;20489;-76
2023/04/05 02:03:35;;;;;;;23.47;15.40;;;;;;;-3.64;100.00;102165.53;10377615;28;20512;-76
2023/04/05 02:08:36;;;;;;;24.27;15.07;;;;;;;-3.76;100.00;102162.34;10365124;28;20121;-75
2023/04/05 02:13:36;;;;;;;22.03;13.40;;;;;;;-3.79;100.00;102164.50;10371092;28;20068;-76
2023/04/05 02:18:37;;;;;;;13.90;8.60;;;;;;;-3.78;100.00;102156.09;10356671;28;20129;-76
2023/04/05 02:23:38;;;;;;;24.73;13.70;;;;;;;-3.82;100.00;102154.81;10369763;28;20124;-76
2023/04/05 02:28:38;;;;;;;22.50;14.20;;;;;;;-3.78;100.00;102156.09;10365071;28;20068;-76
2023/04/05 02:33:39;;;;;;;19.73;12.77;;;;;;;-3.86;100.00;102142.38;10370724;28;20068;-75
2023/04/05 02:38:39;;;;;;;21.20;14.00;;;;;;;-3.95;100.00;102157.47;10361409;28;20556;-76
2023/04/05 02:43:40;;;;;;;23.00;14.53;;;;;;;-3.97;100.00;102151.22;10377200;28;20177;-75
2023/04/05 02:48:41;;;;;;;25.30;15.30;;;;;;;-3.96;100.00;102150.50;10365032;28;20442;-76
2023/04/05 02:53:41;;;;;;;25.77;16.43;;;;;;;-3.86;100.00;102155.16;10383307;28;20509;-76
2023/04/05 02:58:42;;;;;;;24.33;17.53;;;;;;;-3.84;100.00;102141.81;10360997;28;20069;-76
2023/04/05 03:03:42;;;;;;;29.90;20.43;;;;;;;-3.77;100.00;102135.84;10376735;28;20558;-76
2023/04/05 03:08:43;;;;;;;26.40;16.03;;;;;;;-3.67;100.00;102137.91;10361508;28;20069;-77
2023/04/05 03:13:43;;;;;;;25.37;15.53;;;;;;;-3.55;100.00;102136.88;10363116;28;20096;-76
2023/04/05 03:18:44;;;;;;;23.50;14.80;;;;;;;-3.64;100.00;102135.72;10361561;28;20092;-75
2023/04/05 03:23:45;;;;;;;25.23;15.13;;;;;;;-3.76;100.00;102124.88;10381529;28;20126;-76
2023/04/05 03:28:46;;;;;;;21.60;16.87;;;;;;;-3.82;100.00;102124.13;10362244;28;20128;-76
2023/04/05 03:33:46;;;;;;;26.03;16.47;;;;;;;-4.02;100.00;102125.09;10349484;28;20176;-76
2023/04/05 03:38:47;;;;;;;29.33;17.33;;;;;;;-4.16;100.00;102118.22;10360764;28;20041;-76
2023/04/05 03:43:48;;;;;;;25.27;15.43;;;;;;;-4.22;100.00;102108.88;10380121;28;20120;-77
2023/04/05 03:48:48;;;;;;;25.53;16.40;;;;;;;-4.17;100.00;102120.59;10381252;28;20053;-78
2023/04/05 03:53:50;;;;;;;19.93;15.33;;;;;;;-4.18;100.00;102114.56;10360062;28;20446;-76
2023/04/05 03:58:51;;;;;;;25.75;19.55;;;;;;;-4.28;100.00;102116.66;10349204;28;20389;-76
2023/04/05 04:03:51;;;;;;;22.55;15.10;;;;;;;-4.32;100.00;102099.09;10341905;28;20042;-76
2023/04/05 04:08:52;;;;;;;31.30;18.47;;;;;;;-4.23;100.00;102107.94;10377003;28;20561;-76
2023/04/05 04:13:52;;;;;;;27.03;18.60;;;;;;;-4.21;100.00;102105.59;10359937;28;20085;-76
2023/04/05 04:18:53;;;;;;;26.60;19.33;;;;;;;-4.21;100.00;102109.03;10376030;28;20033;-76
2023/04/05 04:23:54;;;;;;;30.53;19.47;;;;;;;-4.23;100.00;102094.25;10372017;28;20042;-79
2023/04/05 04:28:55;;;;;;;27.75;19.65;;;;;;;-4.23;100.00;102097.72;10356428;28;20046;-76
2023/04/05 04:33:55;;;;;;;31.23;20.13;;;;;;;-4.29;100.00;102097.88;10357347;28;20042;-76
2023/04/05 04:38:56;;;;;;;25.57;17.87;;;;;;;-4.34;100.00;102098.94;10350395;28;20125;-77
2023/04/05 04:43:57;;;;;;;21.17;14.37;;;;;;;-4.40;100.00;102102.31;10358143;28;20037;-76
2023/04/05 04:48:57;;;;;;;23.77;17.53;;;;;;;-4.41;100.00;102101.44;10374178;28;20458;-75
2023/04/05 04:53:58;;;;;;;18.30;12.30;;;;;;;-4.37;100.00;102097.59;10358893;28;20121;-76
2023/04/05 04:58:58;;;;;;;25.03;16.60;;;;;;;-4.39;100.00;102097.44;10355504;28;20098;-76
2023/04/05 05:03:59;;;;;;;26.30;17.80;;;;;;;-4.50;100.00;102108.81;10382047;28;20037;-78
2023/04/05 05:09:00;;;;;;;31.67;19.80;;;;;;;-4.63;100.00;102105.41;10395270;28;20077;-76
2023/04/05 05:14:00;;;;;;;25.60;20.07;;;;;;;-4.50;100.00;102107.91;10379263;28;20128;-76
2023/04/05 05:19:01;;;;;;;26.30;19.30;;;;;;;-4.44;100.00;102107.03;10388015;28;20125;-77
2023/04/05 05:24:01;;;;;;;28.63;21.40;;;;;;;-4.34;100.00;102105.66;10369606;28;20084;-77
2023/04/05 05:29:02;;;;;;;27.23;17.23;;;;;;;-4.33;100.00;102110.06;10369583;28;20040;-79
2023/04/05 05:34:03;;;;;;;30.15;20.13;;;;;;;-4.14;100.00;102106.53;10379996;28;20042;-79
2023/04/05 05:39:06;;;;;;;26.83;18.67;;;;;;;-4.00;100.00;102109.91;10370343;28;20452;-76
2023/04/05 05:44:07;;;;;;;25.95;18.48;;;;;;;-3.84;100.00;102105.09;10368846;28;20072;-78
2023/04/05 05:49:08;;;;;;;28.27;19.87;;;;;;;-3.35;100.00;102104.25;10381492;28;20046;-76
2023/04/05 05:54:08;;;;;;;24.10;19.17;;;;;;;-2.86;100.00;102102.56;10372082;28;20127;-77
2023/04/05 05:59:09;;;;;;;25.50;16.55;;;;;;;-1.99;100.00;102096.47;10381760;28;20124;-77
2023/04/05 06:04:09;;;;;;;23.05;13.60;;;;;;;-0.27;100.00;102086.75;10372739;28;20116;-79
2023/04/05 06:09:10;;;;;;;21.48;10.45;;;;;;;1.69;100.00;102075.69;10366230;28;20061;-79
2023/04/05 06:14:10;;;;;;;12.43;8.13;;;;;;;3.29;100.00;102057.81;10366985;28;20077;-77
2023/04/05 06:19:11;;;;;;;12.68;8.35;;;;;;;4.24;100.00;102070.13;10363373;28;20061;-77
2023/04/05 06:24:11;;;;;;;10.80;7.95;;;;;;;5.05;100.00;102071.28;10404982;28;20034;-77
2023/04/05 06:29:12;;;;;;;16.25;8.02;;;;;;;6.33;100.00;102071.03;10384450;28;20053;-77
2023/04/05 06:34:12;;;;;;;14.98;8.32;;;;;;;6.88;99.94;102063.41;10385867;28;20454;-75
2023/04/05 06:39:13;;;;;;;13.20;8.38;;;;;;;7.01;94.53;102071.44;10354889;28;20133;-75
2023/04/05 06:44:14;;;;;;;13.45;9.18;;;;;;;7.49;96.97;102072.66;10389776;28;20042;-74
2023/04/05 06:49:14;;;;;;;12.05;7.10;;;;;;;8.88;90.99;102063.19;10381905;28;20065;-75
2023/04/05 06:54:15;;;;;;;14.88;8.00;;;;;;;9.75;83.99;102058.91;10377315;28;20072;-74
2023/04/05 06:59:16;;;;;;;15.13;8.18;;;;;;;10.57;79.58;102053.13;10331217;28;20054;-75
2023/04/05 07:04:16;;;;;;;10.75;7.88;;;;;;;11.28;73.62;102069.91;10354646;28;20553;-74
2023/04/05 07:09:17;;;;;;;10.60;7.15;;;;;;;11.73;69.81;102068.38;10368956;28;20124;-75
2023/04/05 07:14:17;;;;;;;15.68;9.10;;;;;;;11.97;65.77;102064.56;10371417;28;20185;-73
2023/04/05 07:19:17;;;;;;;16.38;8.57;;;;;;;12.30;65.82;102062.22;10334233;28;20460;-74
2023/04/05 07:24:18;;;;;;;21.75;10.88;;;;;;;12.18;64.36;102076.41;10376287;28;20081;-74
2023/04/05 07:29:19;;;;;;;14.68;9.77;;;;;;;12.30;63.07;102077.97;10365112;28;20144;-75
2023/04/05 07:34:19;;;;;;;13.73;9.23;;;;;;;13.12;60.71;102068.66;10372037;28;20084;-74
2023/04/05 07:39:20;;;;;;;16.85;9.57;;;;;;;13.33;61.42;102064.59;10348602;28;20045;-75
2023/04/05 07:44:20;;;;;;;17.45;8.32;;;;;;;13.38;60.28;102077.09;10373213;28;20179;-77
2023/04/05 07:49:27;;;;;;;12.23;8.32;;;;;;;14.94;53.60;102076.44;10356779;28;20132;-77
2023/04/05 07:54:32;;;;;;;15.60;9.02;;;;;;;14.78;53.88;102073.06;10348478;28;20034;-75
2023/04/05 07:59:33;;;;;;;14.93;7.25;;;;;;;15.36;51.10;102075.78;10363150;28;20553;-75
2023/04/05 08:04:34;;;;;;;9.95;7.38;;;;;;;14.92;50.65;102078.09;10367856;28;20050;-77
2023/04/05 08:09:35;;;;;;;11.50;8.73;;;;;;;15.46;49.54;102080.66;10363842;28;21544;-76
2023/04/05 08:14:35;;;;;;;13.65;9.48;;;;;;;15.66;50.12;102064.84;10371430;28;20046;-75
2023/04/05 08:19:36;;;;;;;12.90;7.55;;;;;;;16.42;46.39;102069.13;10394329;28;20038;-76
2023/04/05 08:24:36;;;;;;;11.95;7.97;;;;;;;16.36;44.87;102065.34;10364770;28;20129;-75
2023/04/05 08:29:37;;;;;;;12.63;7.63;;;;;;;16.11;44.82;102067.78;10335116;28;20129;-74
2023/04/05 08:34:38;;;;;;;18.35;7.35;;;;;;;16.68;43.91;102071.97;10372694;28;20034;-75
2023/04/05 08:39:38;;;;;;;12.52;7.75;;;;;;;16.57;41.84;102065.31;10380851;28;20045;-75
2023/04/05 08:44:39;;;;;;;13.77;7.47;;;;;;;16.26;43.48;102059.66;10387621;28;20141;-76
2023/04/05 08:49:45;;;;;;;11.27;7.60;;;;;;;17.09;41.23;102061.31;10373065;28;20130;-76
2023/04/05 08:54:46;;;;;;;10.23;6.90;;;;;;;18.02;39.38;102061.28;10369278;28;20039;-76
2023/04/05 08:59:46;;;;;;;11.50;7.28;;;;;;;18.03;37.91;102060.44;10381667;28;20041;-73
2023/04/05 09:04:47;;;;;;;10.57;6.97;;;;;;;17.98;38.53;102056.69;10393543;28;20133;-73
2023/04/05 09:09:51;;;;;;;15.13;7.30;;;;;;;17.73;40.77;102051.41;10395342;28;20042;-76
2023/04/05 09:14:52;;;;;;;9.85;6.93;;;;;;;17.85;39.97;102058.00;10356988;28;20177;-75
2023/04/05 09:19:52;;;;;;;33.13;8.45;;;;;;;18.58;36.93;102052.59;10371327;28;20045;-76
2023/04/05 09:24:53;;;;;;;8.38;6.18;;;;;;;18.88;35.72;102057.09;10387941;28;20128;-76
2023/04/05 09:29:53;;;;;;;10.07;6.50;;;;;;;18.97;32.42;102052.13;10368924;28;20133;-76
2023/04/05 09:34:54;;;;;;;12.23;7.28;;;;;;;18.73;35.73;102049.56;10380397;28;20072;-76
2023/04/05 09:40:01;;;;;;;11.75;8.52;;;;;;;19.12;34.91;102041.13;10366727;28;20054;-76
2023/04/05 09:45:04;;;;;;;10.73;7.35;;;;;;;19.22;33.73;102042.28;10387047;28;20065;-74
2023/04/05 09:50:14;;;;;;;13.10;7.28;;;;;;;19.49;32.02;102034.28;10364337;28;20083;-74
2023/04/05 09:55:25;;;;;;;14.43;8.15;;;;;;;19.43;30.83;102033.16;10377909;28;20070;-74
2023/04/05 10:00:25;;;;;;;10.88;7.43;;;;;;;19.42;32.20;102029.63;10370238;28;20120;-73
2023/04/05 10:05:27;;;;;;;14.63;7.95;;;;;;;19.42;31.53;102028.72;10399158;28;20068;-74
2023/04/05 10:10:27;;;;;;;11.10;7.93;;;;;;;19.27;31.95;102024.75;10393157;28;20042;-73
2023/04/05 10:15:29;;;;;;;22.75;9.77;;;;;;;18.51;34.05;102026.72;10357941;28;20412;-73
2023/04/05 10:20:31;;;;;;;10.90;6.53;;;;;;;18.22;32.73;102016.97;10377500;28;20848;-74
2023/04/05 10:25:50;;;;;;;13.18;8.40;;;;;;;19.20;31.04;102012.16;10363753;28;20037;-74
2023/04/05 10:30:51;;;;;;;13.02;8.45;;;;;;;19.07;32.51;102006.47;10375280;28;20058;-73
2023/04/05 10:36:22;;;;;;;15.90;8.37;;;;;;;18.32;32.05;102008.47;10346521;28;20375;-73
2023/04/05 10:41:22;;;;;;;9.90;7.13;;;;;;;18.12;32.72;102006.91;10389710;28;20160;-74
2023/04/05 10:46:23;;;;;;;12.15;7.30;;;;;;;18.81;35.14;102000.34;10382963;28;20443;-74
2023/04/05 10:51:23;;;;;;;17.95;9.48;;;;;;;18.99;30.84;102002.69;10400437;28;20080;-73
2023/04/05 10:56:24;;;;;;;12.75;7.32;;;;;;;18.87;32.91;101992.56;10378891;28;20121;-73
2023/04/05 11:01:25;;;;;;;13.75;8.20;;;;;;;18.62;33.05;101982.91;10387073;28;20592;-74
2023/04/05 11:06:28;;;;;;;14.95;7.80;;;;;;;19.12;33.41;101981.84;10398653;28;20041;-74
2023/04/05 11:11:31;;;;;;;11.30;7.57;;;;;;;19.08;34.89;101972.91;10404166;28;20091;-74
2023/04/05 11:16:38;;;;;;;17.27;8.25;;;;;;;19.05;34.97;101964.84;10398723;28;20672;-74
2023/04/05 11:21:39;;;;;;;9.95;6.90;;;;;;;19.39;32.10;101971.16;10380774;28;20069;-73
2023/04/05 11:26:39;;;;;;;12.15;7.40;;;;;;;19.15;35.74;101952.72;10370750;28;20128;-73
2023/04/05 11:31:59;;;;;;;10.73;6.93;;;;;;;18.79;32.07;101955.19;10373866;28;20046;-74
2023/04/05 11:36:59;;;;;;;11.38;7.82;;;;;;;16.98;33.85;101956.88;10356546;28;20053;-73
2023/04/05 11:42:01;;;;;;;18.10;8.48;;;;;;;17.98;37.36;101954.31;10374458;28;20604;-73
2023/04/05 11:47:02;;;;;;;13.30;9.70;;;;;;;19.04;33.83;101942.72;10356813;28;20053;-73
2023/04/05 11:52:11;;;;;;;11.63;8.57;;;;;;;19.46;31.63;101932.38;10366886;28;20752;-73
2023/04/05 11:57:12;;;;;;;11.88;7.85;;;;;;;18.25;34.15;101934.00;10388700;28;21141;-74
2023/04/05 12:02:13;;;;;;;12.18;8.02;;;;;;;18.39;33.54;101916.81;10382441;28;20059;-73
2023/04/05 12:07:18;;;;;;;12.85;8.88;;;;;;;18.04;32.05;101916.56;10352524;28;20408;-73
2023/04/05 12:12:18;;;;;;;20.45;8.60;;;;;;;17.93;35.06;101899.38;10329212;28;20099;-76
2023/04/05 12:17:19;;;;;;;11.73;9.13;;;;;;;18.39;33.50;101900.91;10381334;28;20074;-74
2023/04/05 12:22:20;;;;;;;13.70;8.53;;;;;;;18.47;33.70;101894.09;10372789;28;20065;-73
2023/04/05 12:27:20;;;;;;;12.27;7.97;;;;;;;18.68;35.01;101887.66;10370945;28;20520;-74
2023/04/05 12:32:21;;;;;;;12.63;8.32;;;;;;;19.20;32.69;101885.69;10390246;28;20184;-73
2023/04/05 12:37:21;;;;;;;10.35;8.52;;;;;;;19.33;30.81;101886.03;10394327;28;20068;-73
2023/04/05 12:42:22;;;;;;;11.68;6.95;;;;;;;19.25;30.74;101882.28;10395404;28;20491;-74
2023/04/05 12:47:27;;;;;;;7.63;6.07;;;;;;;19.18;31.97;101873.22;10382173;28;20044;-74
2023/04/05 12:52:28;;;;;;;10.70;7.45;;;;;;;19.12;33.49;101871.31;10389528;28;20402;-75
2023/04/05 12:57:32;;;;;;;14.82;8.02;;;;;;;18.53;31.85;101866.00;10394506;28;20072;-74
2023/04/05 13:02:32;;;;;;;14.23;8.82;;;;;;;18.36;34.24;101854.88;10373723;28;20559;-74
2023/04/05 13:07:33;;;;;;;14.15;8.75;;;;;;;18.52;32.78;101851.84;10398747;28;20185;-77
2023/04/05 13:12:33;;;;;;;11.32;7.05;;;;;;;18.97;32.54;101842.56;10363420;28;20120;-74
2023/04/05 13:17:34;;;;;;;14.43;8.93;;;;;;;18.46;32.06;101839.28;10382698;28;20097;-73
2023/04/05 13:22:34;;;;;;;12.23;7.68;;;;;;;18.25;32.18;101841.28;10383797;28;20060;-73
2023/04/05 13:27:35;;;;;;;12.07;8.25;;;;;;;18.92;34.60;101828.25;10351805;28;20046;-73
2023/04/05 13:32:35;;;;;;;10.95;8.45;;;;;;;19.36;32.83;101819.78;10363229;28;20121;-73
2023/04/05 13:37:36;;;;;;;11.75;8.32;;;;;;;19.01;30.73;101815.28;10392005;28;20117;-74
2023/04/05 13:42:37;;;;;;;13.40;9.18;;;;;;;18.99;30.98;101821.41;10374104;28;20067;-75
2023/04/05 13:47:37;;;;;;;12.73;8.57;;;;;;;19.17;31.98;101816.63;10387446;28;20088;-74
2023/04/05 13:52:38;;;;;;;12.32;7.97;;;;;;;19.36;30.23;101804.72;10365923;28;20037;-73
2023/04/05 13:57:39;;;;;;;14.98;8.35;;;;;;;19.57;30.96;101800.81;10365900;28;20065;-74
2023/04/05 14:02:39;;;;;;;10.63;8.50;;;;;;;18.97;32.91;101799.25;10361534;28;20072;-73
2023/04/05 14:07:40;;;;;;;11.73;8.73;;;;;;;18.54;34.04;101796.22;10352166;28;20037;-74
2023/04/05 14:12:40;;;;;;;19.23;8.52;;;;;;;19.12;33.81;101797.03;10365475;28;20520;-74
2023/04/05 14:17:41;;;;;;;12.98;9.15;;;;;;;18.37;34.36;101783.34;10362695;28;20125;-74
2023/04/05 14:22:41;;;;;;;13.85;9.20;;;;;;;18.73;34.56;101780.00;10363538;28;20497;-75
2023/04/05 14:27:42;;;;;;;11.02;8.40;;;;;;;19.44;33.26;101759.81;10353793;28;20045;-76
2023/04/05 14:32:44;;;;;;;14.88;8.00;;;;;;;19.15;30.92;101772.31;10373839;28;20042;-75
2023/04/05 14:37:44;;;;;;;11.98;7.93;;;;;;;19.01;32.45;101767.53;10372875;28;20498;-75
2023/04/05 14:42:45;;;;;;;13.60;7.75;;;;;;;18.52;34.87;101760.81;10376614;28;20129;-75
2023/04/05 14:47:45;;;;;;;10.10;7.40;;;;;;;18.61;34.25;101762.00;10359331;28;20091;-75
2023/04/05 14:52:45;;;;;;;14.45;9.50;;;;;;;17.08;36.01;101747.44;10365189;28;20064;-76
2023/04/05 14:57:46;;;;;;;14.55;8.60;;;;;;;17.47;35.82;101754.03;10379791;28;20485;-75
2023/04/05 15:02:47;;;;;;;11.63;8.98;;;;;;;18.05;32.59;101749.75;10352341;28;20034;-76
2023/04/05 15:07:47;;;;;;;10.68;8.18;;;;;;;16.92;33.67;101742.44;10359281;28;20144;-76
2023/04/05 15:12:48;;;;;;;13.68;7.70;;;;;;;16.52;35.75;101739.22;10356234;28;20128;-76
2023/04/05 15:17:48;;;;;;;12.40;8.10;;;;;;;16.43;34.14;101735.38;10371473;28;20144;-76
2023/04/05 15:22:49;;;;;;;10.30;9.05;;;;;;;15.71;34.29;101728.19;10343628;28;20041;-76
2023/04/05 15:27:50;;;;;;;10.60;7.63;;;;;;;14.97;38.70;101733.94;10360065;28;20122;-76
2023/04/05 15:32:52;;;;;;;12.55;8.10;;;;;;;15.18;35.95;101731.28;10357599;28;20050;-74
2023/04/05 15:37:52;;;;;;;;;;;;;;;14.96;36.87;101726.84;10360138;28;20037;-75
2023/04/05 15:42:53;;;;;;;14.25;7.15;;;;;;;15.10;36.89;101722.16;10353716;28;19929;-74
2023/04/05 15:47:54;;;;;;;15.68;9.38;;;;;;;14.61;36.79;101713.88;10342536;28;20046;-74
2023/04/05 15:52:54;;;;;;;15.75;8.50;;;;;;;13.10;38.60;101721.63;10361402;28;20026;-74
2023/04/05 15:57:55;;;;;;;12.07;7.03;;;;;;;12.60;39.24;101713.81;10362564;28;20477;-74
2023/04/05 16:02:57;;;;;;;11.20;7.35;;;;;;;11.89;39.55;101705.63;10405687;28;20133;-75
2023/04/05 16:07:58;;;;;;;10.25;7.07;;;;;;;11.40;40.92;101705.47;10367477;28;20133;-75
2023/04/05 16:12:59;;;;;;;9.68;6.32;;;;;;;10.93;40.29;101708.00;10345899;28;20393;-74
2023/04/05 16:17:59;;;;;;;11.57;7.60;;;;;;;10.46;42.29;101706.03;10365015;28;20511;-74
2023/04/05 16:23:00;;;;;;;11.00;7.53;;;;;;;10.14;44.25;101701.47;10381546;28;20723;-74
2023/04/05 16:28:01;;;;;;;12.15;6.85;;;;;;;9.91;43.08;101697.41;10349157;28;20044;-75
2023/04/05 16:33:01;;;;;;;13.75;8.25;;;;;;;9.70;44.49;101707.41;10353983;28;20038;-76
2023/04/05 16:38:03;;;;;;;12.75;8.13;;;;;;;9.52;47.02;101702.78;10367321;28;20037;-75
2023/04/05 16:43:03;;;;;;;11.70;7.85;;;;;;;9.28;44.50;101701.16;10388449;28;22251;-76
2023/04/05 16:48:04;;;;;;;12.38;7.60;;;;;;;9.07;45.30;101697.22;10376499;28;20092;-75
2023/04/05 16:53:04;;;;;;;10.32;6.43;;;;;;;8.96;45.36;101692.97;10373844;28;20124;-76
2023/04/05 16:58:05;;;;;;;10.45;6.78;;;;;;;8.75;46.91;101695.94;10370111;28;20053;-74
2023/04/05 17:03:05;;;;;;;12.52;7.15;;;;;;;8.61;49.27;101687.19;10391361;28;20045;-74
2023/04/05 17:08:06;;;;;;;15.10;11.73;;;;;;;8.50;51.33;101694.25;10381559;28;20033;-75
2023/04/05 17:13:07;;;;;;;46.10;26.08;;;;;;;8.42;49.94;101698.00;10373706;28;20478;-75
2023/04/05 17:18:07;;;;;;;17.00;8.35;;;;;;;8.08;52.30;101688.72;10365732;28;20069;-75
2023/04/05 17:23:08;;;;;;;16.80;9.70;;;;;;;7.86;53.09;101686.25;10359033;28;20125;-77
2023/04/05 17:28:08;;;;;;;13.15;6.82;;;;;;;7.47;55.27;101688.72;10377624;28;20192;-75
2023/04/05 17:33:09;;;;;;;52.47;14.15;;;;;;;7.15;58.74;101692.44;10380555;28;20065;-74
2023/04/05 17:38:10;;;;;;;669.33;131.05;;;;;;;6.91;61.02;101691.50;10389210;28;20124;-77
2023/04/05 17:43:11;;;;;;;11.20;6.72;;;;;;;6.70;70.67;101698.59;10377717;28;20045;-76
2023/04/05 17:48:12;;;;;;;11.98;6.18;;;;;;;6.39;75.12;101691.91;10347695;28;20670;-75
2023/04/05 17:53:13;;;;;;;12.77;6.60;;;;;;;5.99;73.10;101689.66;10367793;28;20130;-75
2023/04/05 17:58:13;;;;;;;11.20;6.97;;;;;;;5.62;77.06;101699.69;10389647;28;20057;-76
2023/04/05 18:03:14;;;;;;;14.05;8.48;;;;;;;5.42;82.08;101695.47;10372054;28;20132;-77
2023/04/05 18:08:15;;;;;;;12.55;7.25;;;;;;;5.24;83.79;101706.16;10321364;28;20054;-76
2023/04/05 18:13:15;;;;;;;23.38;7.72;;;;;;;4.90;84.14;101699.84;10314591;28;20045;-77
2023/04/05 18:18:16;;;;;;;12.35;7.45;;;;;;;4.55;88.15;101699.59;10296385;28;20034;-77
2023/04/05 18:23:17;;;;;;;19.65;8.18;;;;;;;4.32;98.69;101695.00;10337988;28;20042;-75
2023/04/05 18:28:18;;;;;;;12.60;7.40;;;;;;;4.03;99.26;101705.47;10351001;28;20068;-75
2023/04/05 18:33:21;;;;;;;15.45;7.18;;;;;;;3.79;100.00;101705.13;10358933;28;20049;-76
2023/04/05 18:38:21;;;;;;;12.98;8.07;;;;;;;3.55;100.00;101711.59;10345347;28;20473;-75
2023/04/05 18:43:22;;;;;;;20.85;9.43;;;;;;;3.41;100.00;101713.84;10329726;28;20054;-74
2023/04/05 18:48:23;;;;;;;11.43;7.25;;;;;;;3.21;100.00;101717.22;10323096;28;20142;-75
2023/04/05 18:53:24;;;;;;;12.88;7.75;;;;;;;3.07;100.00;101716.88;10340843;28;20485;-73
2023/04/05 18:58:24;;;;;;;15.05;8.25;;;;;;;2.94;100.00;101717.41;10325019;28;20046;-73
2023/04/05 19:03:25;;;;;;;14.38;8.55;;;;;;;2.74;100.00;101725.00;10346880;28;20126;-74
2023/04/05 19:08:26;;;;;;;14.10;7.68;;;;;;;2.48;100.00;101736.41;10345109;28;20068;-74
2023/04/05 19:13:26;;;;;;;17.17;9.45;;;;;;;2.26;100.00;101731.78;10338558;28;20077;-75
2023/04/05 19:18:28;;;;;;;11.85;7.85;;;;;;;2.27;100.00;101741.34;10337643;28;20164;-75
2023/04/05 19:23:29;;;;;;;12.30;7.57;;;;;;;2.09;100.00;101732.78;10369178;28;20444;-76
2023/04/05 19:28:29;;;;;;;15.57;8.95;;;;;;;1.92;100.00;101738.91;10383679;28;20069;-75
2023/04/05 19:33:32;;;;;;;13.57;9.07;;;;;;;1.83;100.00;101744.09;10362351;28;20511;-74
2023/04/05 19:38:33;;;;;;;10.80;7.93;;;;;;;1.81;100.00;101743.03;10359036;28;20087;-75
2023/04/05 19:43:35;;;;;;;12.88;9.13;;;;;;;1.73;100.00;101736.22;10373315;28;20045;-75
2023/04/05 19:48:40;;;;;;;15.80;9.77;;;;;;;1.65;100.00;101740.63;10342563;28;20049;-75
2023/04/05 19:53:47;;;;;;;21.38;10.15;;;;;;;1.36;100.00;101741.25;10341600;28;20496;-75
2023/04/05 19:58:54;;;;;;;15.05;9.63;;;;;;;1.20;100.00;101736.25;10359519;28;20038;-74
2023/04/05 20:03:54;;;;;;;14.73;9.32;;;;;;;1.12;100.00;101734.59;10370360;28;20387;-74
2023/04/05 20:09:00;;;;;;;15.07;9.65;;;;;;;1.04;100.00;101733.81;10377227;28;20085;-74
2023/04/05 20:14:00;;;;;;;16.40;10.75;;;;;;;0.90;100.00;101729.88;10363947;28;20084;-74
2023/04/05 20:19:03;;;;;;;20.50;10.30;;;;;;;0.80;100.00;101721.97;10361091;28;20449;-74
2023/04/05 20:24:06;;;;;;;;;;;;;;;0.66;100.00;101723.13;10357243;28;20046;-74
2023/04/05 20:29:06;;;;;;;16.50;11.93;;;;;;;0.65;100.00;101721.31;10391134;28;19929;-75
2023/04/05 20:34:11;;;;;;;21.42;11.70;;;;;;;0.52;100.00;101714.03;10384425;28;20033;-74
2023/04/05 20:39:11;;;;;;;18.63;11.23;;;;;;;0.61;100.00;101711.44;10359150;28;20042;-75
2023/04/05 20:44:12;;;;;;;18.50;11.20;;;;;;;0.62;100.00;101709.06;10365903;28;20054;-74
2023/04/05 20:49:12;;;;;;;16.38;11.65;;;;;;;0.62;100.00;101702.97;10369349;28;20065;-74
2023/04/05 20:54:13;;;;;;;21.65;11.30;;;;;;;0.46;100.00;101698.84;10366689;28;20133;-74
2023/04/05 20:59:13;;;;;;;17.50;11.73;;;;;;;0.43;100.00;101702.03;10372389;28;20180;-75
2023/04/05 21:04:14;;;;;;;17.17;12.20;;;;;;;0.32;100.00;101694.88;10349132;28;20481;-74
2023/04/05 21:09:15;;;;;;;18.40;11.43;;;;;;;0.32;100.00;101688.81;10361845;28;20530;-76
2023/04/05 21:14:15;;;;;;;22.20;11.52;;;;;;;0.11;100.00;101693.56;10367142;28;20125;-74
2023/04/05 21:19:16;;;;;;;18.02;11.50;;;;;;;-0.08;100.00;101690.78;10363126;28;20124;-74
2023/04/05 21:24:16;;;;;;;16.60;10.65;;;;;;;-0.19;100.00;101693.16;10364489;28;20129;-75
2023/04/05 21:29:17;;;;;;;16.20;10.75;;;;;;;-0.24;100.00;101691.75;10361043;28;20489;-74
2023/04/05 21:34:17;;;;;;;20.80;11.75;;;;;;;-0.21;100.00;101691.16;10393591;28;20057;-75
2023/04/05 21:39:18;;;;;;;17.98;11.68;;;;;;;-0.26;100.00;101692.34;10390466;28;20132;-74
2023/04/05 21:44:18;;;;;;;13.82;9.02;;;;;;;-0.28;100.00;101693.84;10363773;28;20042;-75
2023/04/05 21:49:19;;;;;;;17.70;11.60;;;;;;;-0.40;100.00;101686.66;10329609;28;20080;-75
2023/04/05 21:54:19;;;;;;;20.10;11.02;;;;;;;-0.40;100.00;101691.81;10366806;28;20128;-75
2023/04/05 21:59:20;;;;;;;17.27;10.13;;;;;;;-0.45;100.00;101688.75;10367405;28;20068;-75
2023/04/05 22:04:20;;;;;;;17.40;12.10;;;;;;;-0.43;100.00;101686.34;10373149;28;20113;-74
2023/04/05 22:09:20;;;;;;;17.27;10.93;;;;;;;-0.58;100.00;101687.28;10363209;28;20453;-75
2023/04/05 22:14:21;;;;;;;16.92;11.07;;;;;;;-0.65;100.00;101680.63;10375892;28;20090;-75
2023/04/05 22:19:22;;;;;;;15.95;10.48;;;;;;;-0.69;100.00;101675.91;10378842;28;20156;-74
2023/04/05 22:24:23;;;;;;;20.85;11.45;;;;;;;-0.72;100.00;101679.03;10345428;28;20048;-74
2023/04/05 22:29:23;;;;;;;19.87;11.23;;;;;;;-0.69;100.00;101683.59;10392972;28;20090;-75
2023/04/05 22:34:24;;;;;;;16.85;11.05;;;;;;;-0.69;100.00;101674.22;10384427;28;20469;-74
2023/04/05 22:39:26;;;;;;;21.77;11.13;;;;;;;-0.67;100.00;101675.28;10363443;28;20073;-74